createdAt,value
2017-12-04T00:01:59.638Z,80.17
2017-12-04T00:04:31.122Z,80.40
2017-12-04T00:07:06.128Z,80.64
2017-12-04T00:09:39.281Z,80.82
2017-12-04T00:12:10.681Z,80.46
2017-12-04T00:14:44.791Z,80.63
2017-12-04T00:17:17.312Z,80.51
2017-12-04T00:19:50.980Z,80.56
2017-12-04T00:22:23.552Z,80.58
2017-12-04T00:24:58.368Z,80.34
2017-12-04T00:27:30.069Z,80.69
2017-12-04T00:30:04.050Z,80.89
2017-12-04T00:32:37.697Z,80.50
2017-12-04T00:35:12.002Z,80.28
2017-12-04T00:37:44.247Z,80.50
2017-12-04T00:40:19.027Z,80.34
2017-12-04T00:42:52.981Z,80.34
2017-12-04T00:45:24.629Z,80.67
2017-12-04T00:47:57.878Z,81.35
2017-12-04T00:50:30.865Z,81.38
2017-12-04T00:53:08.609Z,80.91
2017-12-04T00:55:41.753Z,80.95
2017-12-04T00:58:39.011Z,81.31
2017-12-04T01:02:25.483Z,81.38
2017-12-04T01:08:07.379Z,81.08
2017-12-04T01:10:39.104Z,81.39
2017-12-04T01:13:10.404Z,81.73
2017-12-04T01:15:42.029Z,81.82
2017-12-04T01:18:13.760Z,81.67
2017-12-04T01:20:45.343Z,81.96
2017-12-04T01:23:16.661Z,81.85
2017-12-04T01:25:49.583Z,82.01
2017-12-04T01:28:21.199Z,81.90
2017-12-04T01:30:52.700Z,82.24
2017-12-04T01:33:24.444Z,81.88
2017-12-04T01:35:56.974Z,82.21
2017-12-04T01:38:28.392Z,82.21
2017-12-04T01:41:02.290Z,82.21
2017-12-04T01:43:35.465Z,81.98
2017-12-04T01:46:12.251Z,81.84
2017-12-04T01:48:43.775Z,81.75
2017-12-04T01:51:15.983Z,81.94
2017-12-04T01:53:49.413Z,82.16
2017-12-04T01:56:22.384Z,82.17
2017-12-04T01:58:54.745Z,81.90
2017-12-04T02:01:26.155Z,82.02
2017-12-04T02:03:58.021Z,82.17
2017-12-04T02:06:30.004Z,82.32
2017-12-04T02:09:02.870Z,82.08
2017-12-04T02:11:34.273Z,82.04
2017-12-04T02:14:06.156Z,82.24
2017-12-04T02:16:37.462Z,82.53
2017-12-04T02:19:11.309Z,82.71
2017-12-04T02:21:43.000Z,83.01
2017-12-04T02:24:14.342Z,82.57
2017-12-04T02:26:45.945Z,82.92
2017-12-04T02:29:17.776Z,82.97
2017-12-04T02:31:49.627Z,83.07
2017-12-04T02:34:21.060Z,83.40
2017-12-04T02:36:52.718Z,83.54
2017-12-04T02:39:27.066Z,83.75
2017-12-04T02:42:04.075Z,84.16
2017-12-04T02:44:36.210Z,84.43
2017-12-04T02:47:09.515Z,84.58
2017-12-04T02:49:41.426Z,84.86
2017-12-04T02:52:13.351Z,84.70
2017-12-04T02:54:45.018Z,84.53
2017-12-04T02:57:16.728Z,84.46
2017-12-04T02:59:48.067Z,84.38
2017-12-04T03:02:23.030Z,84.30
2017-12-04T03:04:59.048Z,84.16
2017-12-04T03:07:30.417Z,84.34
2017-12-04T03:10:03.739Z,83.98
2017-12-04T03:12:35.036Z,84.00
2017-12-04T03:15:06.574Z,83.93
2017-12-04T03:17:39.292Z,83.93
2017-12-04T03:20:10.737Z,83.96
2017-12-04T03:22:42.110Z,83.93
2017-12-04T03:25:13.425Z,83.84
2017-12-04T03:27:45.115Z,83.73
2017-12-04T03:30:16.504Z,83.48
2017-12-04T03:32:47.843Z,83.12
2017-12-04T03:35:20.306Z,83.14
2017-12-04T03:37:53.906Z,83.04
2017-12-04T03:40:27.008Z,83.02
2017-12-04T03:42:58.710Z,83.02
2017-12-04T03:45:31.959Z,83.19
2017-12-04T03:48:04.607Z,83.37
2017-12-04T03:50:36.367Z,82.95
2017-12-04T03:53:07.682Z,83.10
2017-12-04T03:55:39.007Z,83.06
2017-12-04T03:58:14.809Z,82.55
2017-12-04T04:00:47.828Z,82.39
2017-12-04T04:03:20.227Z,82.41
2017-12-04T04:05:53.059Z,82.67
2017-12-04T04:08:24.387Z,82.67
2017-12-04T04:10:58.469Z,82.68
2017-12-04T04:13:29.784Z,82.76
2017-12-04T04:16:05.111Z,82.79
2017-12-04T04:18:36.961Z,82.66
2017-12-04T04:21:08.638Z,82.85
2017-12-04T04:23:40.879Z,83.32
2017-12-04T04:26:13.501Z,82.79
2017-12-04T04:28:46.464Z,82.93
2017-12-04T04:31:19.636Z,82.89
2017-12-04T04:33:51.585Z,83.04
2017-12-04T04:36:23.275Z,82.91
2017-12-04T04:38:55.874Z,82.99
2017-12-04T04:41:27.252Z,82.67
2017-12-04T04:44:01.513Z,82.79
2017-12-04T04:46:33.464Z,82.32
2017-12-04T04:49:06.392Z,82.64
2017-12-04T04:51:37.846Z,82.54
2017-12-04T04:54:09.518Z,82.37
2017-12-04T04:56:41.112Z,82.23
2017-12-04T04:59:12.552Z,82.24
2017-12-04T05:01:44.191Z,82.27
2017-12-04T05:04:16.911Z,82.35
2017-12-04T05:06:48.352Z,82.14
2017-12-04T05:09:22.166Z,82.05
2017-12-04T05:11:54.589Z,82.22
2017-12-04T05:14:27.447Z,82.25
2017-12-04T05:17:03.193Z,82.37
2017-12-04T05:19:35.392Z,82.65
2017-12-04T05:22:08.559Z,82.58
2017-12-04T05:24:41.104Z,82.44
2017-12-04T05:27:13.054Z,82.36
2017-12-04T05:29:44.674Z,82.52
2017-12-04T05:32:16.130Z,82.63
2017-12-04T05:34:47.660Z,82.80
2017-12-04T05:37:19.515Z,82.79
2017-12-04T05:39:50.987Z,83.12
2017-12-04T05:42:22.396Z,82.67
2017-12-04T05:44:54.149Z,82.89
2017-12-04T05:47:25.711Z,83.04
2017-12-04T05:50:06.438Z,82.96
2017-12-04T05:52:38.135Z,82.98
2017-12-04T05:55:09.436Z,83.03
2017-12-04T05:57:41.036Z,83.13
2017-12-04T06:00:12.392Z,82.86
2017-12-04T06:02:43.723Z,82.77
2017-12-04T06:05:16.209Z,82.75
2017-12-04T06:07:49.218Z,82.86
2017-12-04T06:10:22.046Z,83.11
2017-12-04T06:12:54.330Z,82.72
2017-12-04T06:15:26.946Z,82.40
2017-12-04T06:18:00.236Z,82.41
2017-12-04T06:20:36.495Z,82.08
2017-12-04T06:23:09.448Z,82.18
2017-12-04T06:25:41.224Z,82.40
2017-12-04T06:28:12.751Z,82.32
2017-12-04T06:30:44.340Z,82.31
2017-12-04T06:33:15.756Z,82.19
2017-12-04T06:35:47.079Z,82.18
2017-12-04T06:38:20.074Z,82.71
2017-12-04T06:40:51.433Z,82.67
2017-12-04T06:43:22.761Z,82.48
2017-12-04T06:45:54.371Z,82.47
2017-12-04T06:48:25.810Z,82.23
2017-12-04T06:50:58.077Z,82.42
2017-12-04T06:53:29.401Z,82.18
2017-12-04T06:56:02.804Z,81.87
2017-12-04T06:58:38.089Z,82.01
2017-12-04T07:01:13.932Z,82.06
2017-12-04T07:03:45.723Z,82.21
2017-12-04T07:06:17.087Z,82.22
2017-12-04T07:08:48.826Z,82.28
2017-12-04T07:11:20.126Z,82.31
2017-12-04T07:13:51.510Z,82.36
2017-12-04T07:16:23.094Z,82.46
2017-12-04T07:18:54.695Z,82.53
2017-12-04T07:21:26.227Z,82.56
2017-12-04T07:23:58.352Z,82.38
2017-12-04T07:26:32.280Z,82.25
2017-12-04T07:29:07.361Z,82.36
2017-12-04T07:31:38.677Z,82.45
2017-12-04T07:34:09.996Z,82.86
2017-12-04T07:36:41.623Z,83.04
2017-12-04T07:39:22.370Z,83.07
2017-12-04T07:41:54.910Z,83.18
2017-12-04T07:44:29.380Z,83.00
2017-12-04T07:47:09.134Z,82.89
2017-12-04T07:49:40.463Z,82.89
2017-12-04T07:52:12.495Z,82.65
2017-12-04T07:54:44.333Z,82.51
2017-12-04T07:57:15.707Z,82.67
2017-12-04T07:59:47.316Z,82.90
2017-12-04T08:02:18.949Z,82.67
2017-12-04T08:04:56.581Z,82.60
2017-12-04T08:07:30.871Z,82.87
2017-12-04T08:10:12.083Z,82.90
2017-12-04T08:12:46.227Z,82.78
2017-12-04T08:15:17.796Z,83.23
2017-12-04T08:17:49.157Z,83.03
2017-12-04T08:20:21.047Z,83.30
2017-12-04T08:22:52.520Z,83.88
2017-12-04T08:25:24.439Z,83.65
2017-12-04T08:27:56.516Z,83.63
2017-12-04T08:30:28.617Z,83.39
2017-12-04T08:33:01.108Z,83.62
2017-12-04T08:35:32.606Z,84.11
2017-12-04T08:38:11.216Z,83.55
2017-12-04T08:40:42.925Z,82.94
2017-12-04T08:43:15.324Z,83.34
2017-12-04T08:51:37.370Z,82.43
2017-12-04T08:54:09.437Z,82.69
2017-12-04T08:56:42.233Z,82.22
2017-12-04T08:59:13.784Z,81.91
2017-12-04T09:04:27.436Z,82.16
2017-12-04T09:06:58.823Z,82.16
2017-12-04T09:09:31.263Z,82.33
2017-12-04T09:12:05.061Z,82.05
2017-12-04T09:14:36.746Z,82.03
2017-12-04T09:17:08.888Z,82.35
2017-12-04T09:19:40.261Z,82.12
2017-12-04T09:22:12.756Z,81.97
2017-12-04T09:24:44.511Z,82.39
2017-12-04T09:27:16.091Z,82.46
2017-12-04T09:29:47.583Z,82.25
2017-12-04T09:32:20.872Z,82.30
2017-12-04T09:34:52.332Z,82.37
2017-12-04T09:37:25.555Z,82.01
2017-12-04T09:39:57.492Z,81.69
2017-12-04T09:42:31.923Z,81.40
2017-12-04T09:45:04.257Z,81.37
2017-12-04T09:47:36.603Z,81.30
2017-12-04T09:50:08.363Z,81.49
2017-12-04T09:52:39.965Z,82.08
2017-12-04T09:55:11.718Z,82.04
2017-12-04T09:57:43.728Z,82.08
2017-12-04T10:00:16.815Z,81.97
2017-12-04T10:02:48.304Z,81.93
2017-12-04T10:05:22.120Z,82.14
2017-12-04T10:07:53.580Z,82.25
2017-12-04T10:10:25.718Z,82.00
2017-12-04T10:12:57.205Z,82.43
2017-12-04T10:15:28.660Z,82.21
2017-12-04T10:18:00.731Z,82.09
2017-12-04T10:20:32.579Z,81.81
2017-12-04T10:23:04.529Z,82.00
2017-12-04T10:25:37.105Z,82.30
2017-12-04T10:28:10.868Z,82.17
2017-12-04T10:30:42.266Z,81.94
2017-12-04T10:33:13.647Z,82.37
2017-12-04T10:35:45.034Z,82.32
2017-12-04T10:38:16.825Z,82.82
2017-12-04T10:40:54.502Z,83.84
2017-12-04T10:43:27.910Z,83.98
2017-12-04T10:45:59.680Z,83.82
2017-12-04T10:48:31.119Z,83.54
2017-12-04T10:51:02.922Z,83.05
2017-12-04T10:53:34.424Z,82.66
2017-12-04T10:56:07.936Z,82.65
2017-12-04T10:58:39.812Z,82.48
2017-12-04T11:01:11.474Z,82.30
2017-12-04T11:03:49.808Z,81.86
2017-12-04T11:06:23.947Z,81.83
2017-12-04T11:08:55.562Z,82.21
2017-12-04T11:11:27.362Z,82.65
2017-12-04T11:13:58.898Z,82.35
2017-12-04T11:16:36.046Z,82.57
2017-12-04T11:19:07.822Z,82.27
2017-12-04T11:21:39.247Z,82.69
2017-12-04T11:24:12.490Z,82.58
2017-12-04T11:26:44.066Z,82.09
2017-12-04T11:29:15.475Z,81.75
2017-12-04T11:31:47.481Z,81.73
2017-12-04T11:34:19.770Z,82.48
2017-12-04T11:36:51.622Z,82.29
2017-12-04T11:39:23.353Z,82.02
2017-12-04T11:41:55.155Z,81.86
2017-12-04T11:44:29.089Z,81.58
2017-12-04T11:47:01.974Z,81.70
2017-12-04T11:49:33.419Z,81.35
2017-12-04T11:52:06.626Z,81.24
2017-12-04T11:54:38.867Z,81.68
2017-12-04T11:57:10.284Z,81.19
2017-12-04T11:59:41.985Z,81.45
2017-12-04T12:02:14.431Z,81.38
2017-12-04T12:04:46.138Z,81.56
2017-12-04T12:07:17.614Z,81.51
2017-12-04T12:09:49.128Z,81.03
2017-12-04T12:12:22.173Z,80.84
2017-12-04T12:14:53.774Z,81.17
2017-12-04T12:17:25.333Z,80.86
2017-12-04T12:19:57.505Z,80.87
2017-12-04T12:22:30.602Z,81.29
2017-12-04T12:25:02.629Z,81.16
2017-12-04T12:27:34.507Z,81.36
2017-12-04T12:30:07.924Z,81.52
2017-12-04T12:32:39.361Z,81.14
2017-12-04T12:35:11.204Z,81.10
2017-12-04T12:41:43.917Z,81.13
2017-12-04T12:44:16.003Z,81.86
2017-12-04T12:46:49.481Z,81.99
2017-12-04T12:49:21.374Z,82.19
2017-12-04T12:51:53.799Z,82.05
2017-12-04T12:54:25.452Z,82.16
2017-12-04T12:56:57.217Z,82.21
2017-12-04T12:59:30.499Z,81.83
2017-12-04T13:04:39.159Z,82.02
2017-12-04T13:07:10.700Z,81.81
2017-12-04T13:12:20.295Z,81.82
2017-12-04T13:14:52.404Z,82.40
2017-12-04T13:17:29.831Z,82.21
2017-12-04T13:20:09.258Z,82.70
2017-12-04T13:22:41.198Z,82.63
2017-12-04T13:25:12.514Z,82.55
2017-12-04T13:27:44.133Z,83.09
2017-12-04T13:30:15.682Z,83.45
2017-12-04T13:39:12.282Z,83.50
2017-12-04T13:41:43.958Z,83.56
2017-12-04T13:44:15.625Z,83.20
2017-12-04T13:46:47.383Z,83.52
2017-12-04T13:49:18.785Z,83.62
2017-12-04T13:51:50.390Z,83.73
2017-12-04T13:54:22.922Z,83.76
2017-12-04T13:56:54.536Z,83.81
2017-12-04T13:59:26.200Z,83.52
2017-12-04T14:01:57.557Z,83.37
2017-12-04T14:04:29.068Z,83.83
2017-12-04T14:07:00.683Z,83.46
2017-12-04T14:09:36.589Z,83.12
2017-12-04T14:12:09.147Z,83.07
2017-12-04T14:14:41.623Z,82.71
2017-12-04T14:17:13.429Z,82.85
2017-12-04T14:19:49.784Z,82.80
2017-12-04T14:22:21.140Z,82.38
2017-12-04T14:24:52.754Z,81.67
2017-12-04T14:27:24.456Z,82.09
2017-12-04T14:29:55.799Z,82.25
2017-12-04T14:32:30.143Z,81.91
2017-12-04T14:35:01.675Z,82.34
2017-12-04T14:37:33.299Z,82.66
2017-12-04T14:42:59.971Z,83.06
2017-12-04T14:45:31.306Z,83.16
2017-12-04T14:48:04.925Z,82.90
2017-12-04T14:50:36.683Z,83.27
2017-12-04T14:53:08.107Z,83.90
2017-12-04T14:55:39.508Z,83.68
2017-12-04T14:58:11.474Z,83.57
2017-12-04T15:00:42.852Z,83.69
2017-12-04T15:03:14.460Z,83.71
2017-12-04T15:05:45.915Z,83.83
2017-12-04T15:08:17.394Z,83.58
2017-12-04T15:10:48.813Z,83.67
2017-12-04T15:13:20.308Z,83.31
2017-12-04T15:15:52.058Z,83.04
2017-12-04T15:18:24.472Z,82.96
2017-12-04T15:20:56.266Z,82.85
2017-12-04T15:23:27.909Z,82.92
2017-12-04T15:25:59.400Z,82.86
2017-12-04T15:28:31.394Z,82.68
2017-12-04T15:31:03.369Z,82.80
2017-12-04T15:33:35.145Z,82.86
2017-12-04T15:36:07.416Z,83.28
2017-12-04T15:38:38.777Z,83.29
2017-12-04T15:41:10.111Z,83.39
2017-12-04T15:43:41.521Z,83.16
2017-12-04T15:46:14.574Z,83.26
2017-12-04T15:48:45.982Z,83.47
2017-12-04T15:51:17.791Z,83.42
2017-12-04T15:53:49.187Z,83.25
2017-12-04T15:56:20.669Z,83.40
2017-12-04T15:58:52.326Z,83.49
2017-12-04T16:01:24.106Z,83.54
2017-12-04T16:03:55.478Z,83.66
2017-12-04T16:06:27.259Z,83.71
2017-12-04T16:08:58.611Z,84.00
2017-12-04T16:11:32.188Z,84.00
2017-12-04T16:14:05.315Z,83.93
2017-12-04T16:16:37.016Z,84.11
2017-12-04T16:19:08.448Z,83.78
2017-12-04T16:21:40.135Z,83.72
2017-12-04T16:24:12.526Z,83.63
2017-12-04T16:26:43.874Z,83.60
2017-12-04T16:29:15.535Z,83.34
2017-12-04T16:31:47.005Z,83.06
2017-12-04T16:34:18.585Z,83.49
2017-12-04T16:36:50.229Z,83.60
2017-12-04T16:39:21.569Z,83.81
2017-12-04T16:41:53.270Z,83.92
2017-12-04T16:44:24.903Z,83.71
2017-12-04T16:46:56.249Z,83.73
2017-12-04T16:49:27.981Z,83.24
2017-12-04T16:51:59.491Z,83.14
2017-12-04T16:54:31.393Z,83.20
2017-12-04T16:57:03.475Z,83.33
2017-12-04T16:59:34.926Z,82.96
2017-12-04T17:02:07.367Z,83.29
2017-12-04T17:07:34.649Z,83.04
2017-12-04T17:10:10.836Z,83.21
2017-12-04T17:12:42.445Z,83.39
2017-12-04T17:15:13.802Z,83.68
2017-12-04T17:17:45.529Z,83.59
2017-12-04T17:20:17.208Z,83.60
2017-12-04T17:22:48.584Z,83.51
2017-12-04T17:25:20.143Z,83.52
2017-12-04T17:27:52.092Z,83.80
2017-12-04T17:30:23.716Z,83.83
2017-12-04T17:32:55.485Z,84.17
2017-12-04T17:38:08.738Z,84.08
2017-12-04T17:40:40.130Z,84.06
2017-12-04T17:43:11.547Z,84.17
2017-12-04T17:45:43.103Z,84.23
2017-12-04T17:48:15.326Z,84.28
2017-12-04T17:50:47.132Z,84.26
2017-12-04T17:53:18.551Z,84.14
2017-12-04T17:55:50.182Z,84.28
2017-12-04T17:58:22.207Z,84.25
2017-12-04T18:00:53.717Z,84.04
2017-12-04T18:03:25.465Z,83.88
2017-12-04T18:05:56.933Z,83.81
2017-12-04T18:08:29.746Z,84.11
2017-12-04T18:11:15.777Z,84.31
2017-12-04T18:13:47.193Z,84.74
2017-12-04T18:16:18.877Z,84.90
2017-12-04T18:18:50.289Z,85.11
2017-12-04T18:21:22.316Z,85.05
2017-12-04T18:23:54.900Z,85.03
2017-12-04T18:26:26.566Z,85.25
2017-12-04T18:28:58.306Z,85.39
2017-12-04T18:31:31.996Z,85.46
2017-12-04T18:34:06.851Z,85.46
2017-12-04T18:36:38.272Z,85.50
2017-12-04T18:39:09.712Z,85.38
2017-12-04T18:41:41.673Z,85.27
2017-12-04T18:44:16.010Z,85.26
2017-12-04T18:46:53.924Z,85.36
2017-12-04T18:49:25.810Z,85.41
2017-12-04T18:51:57.230Z,85.05
2017-12-04T18:54:32.050Z,84.74
2017-12-04T18:57:03.804Z,84.74
2017-12-04T18:59:38.090Z,84.63
2017-12-04T19:02:10.978Z,84.63
2017-12-04T19:04:43.230Z,84.63
2017-12-04T19:07:14.672Z,84.61
2017-12-04T19:09:47.788Z,84.36
2017-12-04T19:12:20.879Z,84.55
2017-12-04T19:14:52.259Z,84.50
2017-12-04T19:17:24.230Z,84.15
2017-12-04T19:19:55.939Z,84.02
2017-12-04T19:22:27.365Z,83.96
2017-12-04T19:24:59.050Z,83.96
2017-12-04T19:27:32.168Z,83.81
2017-12-04T19:30:10.775Z,83.89
2017-12-04T19:35:38.364Z,83.75
2017-12-04T19:38:09.953Z,83.70
2017-12-04T19:40:41.428Z,83.43
2017-12-04T19:43:13.423Z,83.26
2017-12-04T19:45:46.033Z,83.49
2017-12-04T19:48:18.206Z,83.55
2017-12-04T19:50:50.053Z,83.33
2017-12-04T19:53:21.520Z,83.30
2017-12-04T19:55:53.264Z,83.68
2017-12-04T19:58:25.341Z,83.86
2017-12-04T20:00:56.773Z,83.57
2017-12-04T20:03:29.111Z,83.71
2017-12-04T20:06:01.034Z,83.81
2017-12-04T20:08:33.278Z,83.83
2017-12-04T20:11:05.225Z,83.80
2017-12-04T20:13:37.747Z,83.70
2017-12-04T20:16:09.877Z,83.52
2017-12-04T20:18:41.543Z,83.42
2017-12-04T20:21:12.942Z,83.10
2017-12-04T20:23:44.688Z,82.53
2017-12-04T20:26:17.987Z,82.52
2017-12-04T20:28:49.508Z,82.66
2017-12-04T20:31:21.211Z,82.68
2017-12-04T20:33:52.672Z,82.83
2017-12-04T20:36:24.576Z,83.26
2017-12-04T20:38:59.856Z,83.34
2017-12-04T20:41:32.473Z,83.18
2017-12-04T20:44:08.959Z,83.25
2017-12-04T20:46:40.628Z,83.39
2017-12-04T20:49:12.347Z,83.61
2017-12-04T20:51:43.851Z,83.41
2017-12-04T20:54:15.867Z,83.39
2017-12-04T20:56:47.370Z,83.31
2017-12-04T20:59:19.108Z,83.14
2017-12-04T21:01:50.860Z,82.88
2017-12-04T21:04:22.448Z,82.75
2017-12-04T21:06:54.743Z,82.85
2017-12-04T21:11:39.195Z,83.18
2017-12-04T21:14:21.374Z,83.53
2017-12-04T21:17:36.234Z,83.30
2017-12-04T21:20:08.319Z,83.01
2017-12-04T21:22:40.462Z,83.10
2017-12-04T21:25:12.542Z,82.91
2017-12-04T21:27:45.415Z,82.92
2017-12-04T21:30:17.367Z,82.78
2017-12-04T21:32:49.961Z,82.97
2017-12-04T21:35:21.768Z,83.08
2017-12-04T21:37:53.618Z,82.82
2017-12-04T21:40:26.312Z,82.98
2017-12-04T21:42:58.047Z,83.21
2017-12-04T21:45:29.763Z,83.56
2017-12-04T21:48:01.798Z,83.62
2017-12-04T21:50:36.546Z,83.67
2017-12-04T21:53:08.248Z,83.66
2017-12-04T21:55:41.144Z,83.55
2017-12-04T21:58:13.453Z,83.83
2017-12-04T22:00:44.894Z,83.66
2017-12-04T22:03:16.314Z,83.96
2017-12-04T22:05:49.680Z,84.16
2017-12-04T22:08:21.219Z,84.19
2017-12-04T22:10:52.939Z,84.15
2017-12-04T22:13:24.585Z,84.16
2017-12-04T22:15:57.077Z,84.29
2017-12-04T22:18:28.562Z,84.56
2017-12-04T22:21:00.303Z,84.53
2017-12-04T22:23:32.002Z,84.31
2017-12-04T22:26:04.906Z,84.12
2017-12-04T22:28:36.377Z,84.23
2017-12-04T22:31:08.112Z,84.30
2017-12-04T22:33:40.199Z,84.37
2017-12-04T22:36:11.824Z,84.21
2017-12-04T22:38:43.653Z,84.30
2017-12-04T22:41:15.140Z,84.34
2017-12-04T22:43:47.062Z,84.42
2017-12-04T22:46:19.529Z,84.33
2017-12-04T22:48:51.806Z,84.21
2017-12-04T22:51:23.233Z,83.98
2017-12-04T22:53:54.988Z,83.76
2017-12-04T22:56:26.647Z,83.96
2017-12-04T22:58:59.151Z,84.09
2017-12-04T23:01:31.235Z,84.18
2017-12-04T23:04:04.973Z,84.48
2017-12-04T23:06:36.992Z,84.51
2017-12-04T23:09:09.116Z,84.67
2017-12-04T23:11:42.350Z,84.67
2017-12-04T23:14:15.502Z,84.30
2017-12-04T23:16:47.292Z,84.46
2017-12-04T23:19:18.715Z,84.55
2017-12-04T23:21:50.865Z,84.58
2017-12-04T23:24:23.383Z,84.49
2017-12-04T23:26:54.935Z,84.62
2017-12-04T23:29:27.398Z,84.48
2017-12-04T23:31:58.912Z,84.14
2017-12-04T23:34:30.342Z,84.14
2017-12-04T23:37:02.326Z,84.16
2017-12-04T23:39:33.906Z,84.09
2017-12-04T23:42:06.418Z,84.04
2017-12-04T23:44:37.768Z,84.36
2017-12-04T23:47:09.371Z,83.98
2017-12-04T23:49:40.731Z,83.88
2017-12-04T23:52:12.721Z,83.80
2017-12-04T23:54:44.571Z,83.80
2017-12-04T23:57:15.875Z,83.99
2017-12-04T23:59:47.179Z,83.76
